Time,TemperatureF,DewpointF,PressureIn,WindDirection,WindDirectionDegrees,WindSpeedMPH,WindSpeedGustMPH,Humidity,HourlyPrecipIn,Conditions,Clouds,dailyrainin,SolarRadiationWatts/m^2,SoftwareType,DateUTC
2014-01-04 00:02:00,4.0,-6.0,-100.00,WNW,301,2.0,7.0,61,0.00,,,0.00,0.000000,,2014-01-04 05:02:00,
2014-01-04 00:43:00,3.0,-6.0,-100.00,NE,42,2.0,5.0,65,0.00,,,0.00,0.000000,,2014-01-04 05:43:00,
2014-01-04 00:53:00,3.0,-6.0,-100.00,NE,42,2.0,5.0,65,0.00,,,0.00,0.000000,,2014-01-04 05:53:00,
2014-01-04 01:03:00,3.0,-6.0,-100.00,NE,42,2.0,5.0,65,0.00,,,0.00,0.000000,,2014-01-04 06:03:00,
2014-01-04 01:42:00,2.0,-7.0,-100.00,SE,124,2.0,5.0,64,0.00,,,0.00,0.000000,,2014-01-04 06:42:00,
2014-01-04 01:53:00,2.0,-7.0,-100.00,SE,124,2.0,5.0,64,0.00,,,0.00,0.000000,,2014-01-04 06:53:00,
2014-01-04 02:02:00,2.0,-7.0,-100.00,SE,124,2.0,5.0,64,0.00,,,0.00,0.000000,,2014-01-04 07:02:00,
2014-01-04 02:42:00,6.0,-6.0,-100.00,South,183,4.0,6.0,58,0.00,,,0.00,0.000000,,2014-01-04 07:42:00,
2014-01-04 02:52:00,6.0,-6.0,-100.00,South,183,4.0,6.0,58,0.00,,,0.00,0.000000,,2014-01-04 07:52:00,
2014-01-04 03:02:00,6.0,-6.0,-100.00,South,183,4.0,6.0,58,0.00,,,0.00,0.000000,,2014-01-04 08:02:00,
2014-01-04 03:52:00,6.0,-5.0,-100.00,South,175,4.0,8.0,59,0.00,,,0.00,0.000000,,2014-01-04 08:52:00,
2014-01-04 04:02:00,6.0,-5.0,-100.00,South,175,4.0,8.0,59,0.00,,,0.00,0.000000,,2014-01-04 09:02:00,
2014-01-04 04:43:00,7.0,-5.0,-100.00,SSE,165,5.0,11.0,56,0.00,,,0.00,0.000000,,2014-01-04 09:43:00,
2014-01-04 04:54:00,7.0,-5.0,-100.00,SSE,165,5.0,11.0,56,0.00,,,0.00,0.000000,,2014-01-04 09:54:00,
2014-01-04 05:03:00,7.0,-5.0,-100.00,SSE,165,5.0,11.0,56,0.00,,,0.00,0.000000,,2014-01-04 10:03:00,
2014-01-04 05:43:00,6.0,-6.0,-100.00,SSE,153,4.0,9.0,57,0.00,,,0.00,0.000000,,2014-01-04 10:43:00,
2014-01-04 05:53:00,6.0,-6.0,-100.00,SSE,153,4.0,9.0,57,0.00,,,0.00,0.000000,,2014-01-04 10:53:00,
2014-01-04 06:03:00,6.0,-6.0,-100.00,SSE,153,4.0,9.0,57,0.00,,,0.00,0.000000,,2014-01-04 11:03:00,
2014-01-04 06:43:00,7.0,-5.0,-100.00,SE,133,10.0,15.0,56,0.00,,,-99.99,0.000000,,2014-01-04 11:43:00,
2014-01-04 06:53:00,7.0,-5.0,-100.00,SE,133,10.0,15.0,56,0.00,,,-99.99,0.000000,,2014-01-04 11:53:00,
2014-01-04 07:02:00,7.0,-5.0,-100.00,SE,133,10.0,15.0,56,0.00,,,-99.99,0.000000,,2014-01-04 12:02:00,
2014-01-04 07:42:00,7.0,-6.0,-100.00,SE,144,9.0,16.0,53,0.00,,,0.00,0.000000,,2014-01-04 12:42:00,
2014-01-04 07:52:00,7.0,-6.0,-100.00,SE,144,9.0,16.0,53,0.00,,,0.00,0.000000,,2014-01-04 12:52:00,
2014-01-04 08:02:00,7.0,-6.0,-100.00,SE,144,9.0,16.0,53,0.00,,,0.00,0.000000,,2014-01-04 13:02:00,
2014-01-04 08:42:00,8.0,-8.0,-100.00,SSE,155,9.0,16.0,48,0.00,,,0.00,8.000000,,2014-01-04 13:42:00,
2014-01-04 08:52:00,8.0,-8.0,-100.00,SSE,155,9.0,16.0,48,0.00,,,0.00,8.000000,,2014-01-04 13:52:00,
2014-01-04 09:02:00,8.0,-8.0,-100.00,SSE,155,9.0,16.0,48,0.00,,,0.00,8.000000,,2014-01-04 14:02:00,
2014-01-04 09:42:00,12.0,-6.0,-100.00,SSE,166,10.0,20.0,43,0.00,,,0.00,161.000000,,2014-01-04 14:42:00,
2014-01-04 09:53:00,12.0,-6.0,-100.00,SSE,166,10.0,20.0,43,0.00,,,0.00,161.000000,,2014-01-04 14:53:00,
2014-01-04 10:02:00,12.0,-6.0,-100.00,SSE,166,10.0,20.0,43,0.00,,,0.00,161.000000,,2014-01-04 15:02:00,
2014-01-04 10:43:00,15.0,-2.0,-100.00,SSE,168,11.0,21.0,45,0.00,,,0.00,315.000000,,2014-01-04 15:43:00,
2014-01-04 10:53:00,15.0,-2.0,-100.00,SSE,168,11.0,21.0,45,0.00,,,0.00,315.000000,,2014-01-04 15:53:00,
2014-01-04 11:03:00,15.0,-2.0,-100.00,SSE,168,11.0,21.0,45,0.00,,,0.00,315.000000,,2014-01-04 16:03:00,
2014-01-04 11:43:00,17.0,-1.0,-100.00,SSE,165,10.0,20.0,44,0.00,,,0.00,415.000000,,2014-01-04 16:43:00,
2014-01-04 11:53:00,17.0,-1.0,-100.00,SSE,165,10.0,20.0,44,0.00,,,0.00,415.000000,,2014-01-04 16:53:00,
2014-01-04 12:02:00,17.0,-1.0,-100.00,SSE,165,10.0,20.0,44,0.00,,,0.00,415.000000,,2014-01-04 17:02:00,
2014-01-04 12:43:00,19.0,0.0,-100.00,South,172,11.0,19.0,43,0.00,,,0.00,464.000000,,2014-01-04 17:43:00,
2014-01-04 12:52:00,19.0,0.0,-100.00,South,172,11.0,19.0,43,0.00,,,0.00,464.000000,,2014-01-04 17:52:00,
2014-01-04 13:03:00,19.0,0.0,-100.00,South,172,11.0,19.0,43,0.00,,,0.00,464.000000,,2014-01-04 18:03:00,
2014-01-04 13:42:00,22.0,2.0,-100.00,SSE,159,9.0,19.0,41,0.00,,,0.00,456.000000,,2014-01-04 18:42:00,
2014-01-04 13:53:00,22.0,2.0,-100.00,SSE,159,9.0,19.0,41,0.00,,,0.00,456.000000,,2014-01-04 18:53:00,
2014-01-04 14:02:00,22.0,2.0,-100.00,SSE,159,9.0,19.0,41,0.00,,,0.00,456.000000,,2014-01-04 19:02:00,
2014-01-04 14:42:00,24.0,3.0,-100.00,SSE,168,8.0,17.0,40,0.00,,,0.00,365.000000,,2014-01-04 19:42:00,
2014-01-04 14:52:00,24.0,3.0,-100.00,SSE,168,8.0,17.0,40,0.00,,,0.00,365.000000,,2014-01-04 19:52:00,
2014-01-04 15:02:00,24.0,3.0,-100.00,SSE,168,8.0,17.0,40,0.00,,,0.00,365.000000,,2014-01-04 20:02:00,
2014-01-04 15:42:00,22.0,3.0,-100.00,SSE,152,9.0,19.0,43,0.00,,,0.00,199.000000,,2014-01-04 20:42:00,
2014-01-04 15:53:00,22.0,3.0,-100.00,SSE,152,9.0,19.0,43,0.00,,,0.00,199.000000,,2014-01-04 20:53:00,
2014-01-04 16:02:00,22.0,3.0,-100.00,SSE,152,9.0,19.0,43,0.00,,,0.00,199.000000,,2014-01-04 21:02:00,
2014-01-04 16:43:00,20.0,3.0,-100.00,SE,144,10.0,19.0,46,0.00,,,0.00,80.000000,,2014-01-04 21:43:00,
2014-01-04 16:53:00,20.0,3.0,-100.00,SE,144,10.0,19.0,46,0.00,,,0.00,80.000000,,2014-01-04 21:53:00,
2014-01-04 17:03:00,20.0,3.0,-100.00,SE,144,10.0,19.0,46,0.00,,,0.00,80.000000,,2014-01-04 22:03:00,
2014-01-04 17:43:00,19.0,4.0,-100.00,SSE,154,9.0,16.0,51,0.00,,,0.00,15.000000,,2014-01-04 22:43:00,
2014-01-04 17:53:00,19.0,4.0,-100.00,SSE,154,9.0,16.0,51,0.00,,,0.00,15.000000,,2014-01-04 22:53:00,
2014-01-04 18:02:00,19.0,4.0,-100.00,SSE,154,9.0,16.0,51,0.00,,,0.00,15.000000,,2014-01-04 23:02:00,
2014-01-04 18:42:00,19.0,5.0,-100.00,SE,144,9.0,17.0,54,0.00,,,0.00,0.000000,,2014-01-04 23:42:00,
2014-01-04 18:53:00,19.0,5.0,-100.00,SE,144,9.0,17.0,54,0.00,,,0.00,0.000000,,2014-01-04 23:53:00,
2014-01-04 19:02:00,19.0,5.0,-100.00,SE,144,9.0,17.0,54,0.00,,,0.00,0.000000,,2014-01-05 00:02:00,
2014-01-04 19:42:00,20.0,7.0,-100.00,SSE,167,9.0,17.0,56,0.00,,,0.00,0.000000,,2014-01-05 00:42:00,
2014-01-04 19:52:00,20.0,7.0,-100.00,SSE,167,9.0,17.0,56,0.00,,,0.00,0.000000,,2014-01-05 00:52:00,
2014-01-04 20:02:00,20.0,7.0,-100.00,SSE,167,9.0,17.0,56,0.00,,,0.00,0.000000,,2014-01-05 01:02:00,
2014-01-04 20:42:00,20.0,7.0,-100.00,SSE,155,9.0,19.0,57,0.00,,,0.00,0.000000,,2014-01-05 01:42:00,
2014-01-04 20:52:00,20.0,7.0,-100.00,SSE,155,9.0,19.0,57,0.00,,,0.00,0.000000,,2014-01-05 01:52:00,
2014-01-04 21:01:00,20.0,7.0,-100.00,SSE,155,9.0,19.0,57,0.00,,,0.00,0.000000,,2014-01-05 02:01:00,
2014-01-04 21:42:00,20.0,6.0,-100.00,SSE,162,7.0,18.0,55,0.00,,,0.00,0.000000,,2014-01-05 02:42:00,
2014-01-04 21:52:00,20.0,6.0,-100.00,SSE,162,7.0,18.0,55,0.00,,,0.00,0.000000,,2014-01-05 02:52:00,
2014-01-04 22:02:00,20.0,6.0,-100.00,SSE,162,7.0,18.0,55,0.00,,,0.00,0.000000,,2014-01-05 03:02:00,
2014-01-04 22:44:00,21.0,8.0,-100.00,SSE,164,9.0,20.0,56,0.00,,,0.00,0.000000,,2014-01-05 03:44:00,
2014-01-04 22:53:00,21.0,8.0,-100.00,SSE,164,9.0,20.0,56,0.00,,,0.00,0.000000,,2014-01-05 03:53:00,
2014-01-04 23:02:00,-999.0,-99.9,-100.00,SSE,164,9.0,20.0,-999,0.00,,,-99.99,0.000000,,2014-01-05 04:02:00,
2014-01-04 23:43:00,20.0,7.0,-100.00,SSE,152,8.0,21.0,57,0.00,,,0.00,0.000000,,2014-01-05 04:43:00,
2014-01-04 23:53:00,20.0,7.0,-100.00,SSE,152,8.0,21.0,57,0.00,,,0.00,0.000000,,2014-01-05 04:53:00,